Terminal Aerodrome Forecast
Issued by NWS Charleston, WV

Current Version | Previous Version | Graphics & Text | Print | Product List | Glossary On
Versions: 1 2 3 4 5 6 7 8 9 10 11 12 13 14 15 16 17 18 19 20 21 22 23 24 25
651
FTUS41 KRLX 261518 AAA
TAFCRW
TAF AMD
KCRW 261518Z 2615/2712 24011G18KT P6SM BKN040
     FM262000 25010G17KT 5SM SHRA VCTS BKN040CB
     FM262200 26010KT 3SM SHRA VCTS BKN030CB
     FM270500 VRB02KT 5SM SHRA BKN028
     FM270900 VRB02KT 3SM -SHRA BKN008=

USA.gov is the U.S. government's official web portal to all federal, state and local government web resources and services.